createdAt,value
2017-11-24T00:00:48.854Z,3.00
2017-11-24T00:03:16.256Z,2.73
2017-11-24T00:14:53.185Z,2.70
2017-11-24T00:35:21.422Z,3.47
2017-11-24T00:37:48.354Z,3.20
2017-11-24T00:40:16.488Z,3.07
2017-11-24T00:42:43.620Z,3.50
2017-11-24T00:45:10.591Z,3.23
2017-11-24T00:47:37.581Z,3.07
2017-11-24T00:50:04.509Z,3.47
2017-11-24T00:52:31.397Z,3.00
2017-11-24T00:54:58.567Z,2.60
2017-11-24T00:57:31.427Z,2.87
2017-11-24T00:59:58.288Z,2.80
2017-11-24T01:02:25.133Z,3.20
2017-11-24T01:04:51.979Z,3.00
2017-11-24T01:07:19.603Z,3.33
2017-11-24T01:09:46.427Z,2.80
2017-11-24T01:12:14.078Z,2.70
2017-11-24T01:14:42.420Z,3.40
2017-11-24T01:17:09.255Z,2.83
2017-11-24T01:19:36.841Z,2.80
2017-11-24T01:22:04.414Z,3.10
2017-11-24T01:24:31.993Z,2.57
2017-11-24T01:26:59.560Z,3.50
2017-11-24T01:29:26.376Z,2.50
2017-11-24T01:31:53.202Z,2.70
2017-11-24T01:34:20.005Z,3.30
2017-11-24T01:36:46.863Z,3.23
2017-11-24T01:39:13.678Z,3.03
2017-11-24T01:41:41.260Z,2.57
2017-11-24T01:44:08.878Z,3.33
2017-11-24T01:46:35.765Z,2.47
2017-11-24T01:49:02.581Z,2.83
2017-11-24T01:51:29.415Z,3.30
2017-11-24T01:53:56.272Z,3.03
2017-11-24T01:56:23.862Z,3.17
2017-11-24T01:58:51.479Z,3.40
2017-11-24T02:01:18.366Z,4.20
2017-11-24T02:03:45.233Z,3.97
2017-11-24T02:06:12.049Z,3.77
2017-11-24T02:08:39.682Z,3.53
2017-11-24T02:11:06.586Z,3.47
2017-11-24T02:13:33.451Z,3.70
2017-11-24T02:16:00.305Z,3.80
2017-11-24T02:18:27.160Z,3.87
2017-11-24T02:20:54.047Z,3.57
2017-11-24T02:23:20.932Z,4.27
2017-11-24T02:25:47.813Z,3.60
2017-11-24T02:28:14.709Z,3.43
2017-11-24T02:30:41.886Z,2.97
2017-11-24T02:33:08.779Z,3.30
2017-11-24T02:35:35.685Z,3.37
2017-11-24T02:38:02.642Z,3.63
2017-11-24T02:40:29.504Z,3.77
2017-11-24T02:42:57.152Z,3.47
2017-11-24T02:45:24.181Z,3.40
2017-11-24T02:47:51.140Z,3.57
2017-11-24T02:50:18.069Z,3.90
2017-11-24T02:52:45.745Z,3.63
2017-11-24T02:55:12.652Z,4.10
2017-11-24T02:57:39.673Z,5.33
2017-11-24T03:00:06.623Z,4.03
2017-11-24T03:02:33.620Z,4.20
2017-11-24T03:05:01.237Z,4.40
2017-11-24T03:07:28.102Z,3.93
2017-11-24T03:09:55.048Z,3.93
2017-11-24T03:12:21.920Z,4.40
2017-11-24T03:14:48.924Z,3.67
2017-11-24T03:17:15.810Z,4.00
2017-11-24T03:19:43.414Z,3.97
2017-11-24T03:22:10.300Z,4.30
2017-11-24T03:24:37.162Z,3.70
2017-11-24T03:27:04.038Z,3.80
2017-11-24T03:29:30.933Z,4.07
2017-11-24T03:31:58.564Z,4.30
2017-11-24T03:34:25.412Z,3.73
2017-11-24T03:36:52.295Z,3.60
2017-11-24T03:39:19.130Z,3.90
2017-11-24T03:41:46.006Z,5.20
2017-11-24T03:44:13.616Z,4.30
2017-11-24T03:46:40.465Z,5.47
2017-11-24T03:49:07.389Z,5.80
2017-11-24T03:51:34.251Z,5.60
2017-11-24T03:54:01.137Z,5.80
2017-11-24T03:56:30.572Z,5.30
2017-11-24T03:58:57.599Z,5.40
2017-11-24T04:01:24.772Z,4.23
2017-11-24T04:03:51.764Z,4.30
2017-11-24T04:06:18.725Z,4.90
2017-11-24T04:08:45.739Z,5.20
2017-11-24T04:11:12.906Z,5.27
2017-11-24T04:13:39.870Z,4.77
2017-11-24T04:16:07.529Z,5.37
2017-11-24T04:18:34.470Z,5.30
2017-11-24T04:21:01.503Z,4.40
2017-11-24T04:23:28.521Z,4.57
2017-11-24T04:25:55.464Z,5.60
2017-11-24T04:28:22.427Z,5.17
2017-11-24T04:30:49.387Z,5.37
2017-11-24T04:33:16.288Z,5.30
2017-11-24T04:35:43.211Z,5.13
2017-11-24T04:38:10.083Z,5.20
2017-11-24T04:40:37.119Z,5.07
2017-11-24T04:43:04.047Z,3.83
2017-11-24T04:45:31.720Z,5.40
2017-11-24T04:47:58.598Z,5.90
2017-11-24T04:50:25.439Z,5.50
2017-11-24T04:52:52.414Z,5.77
2017-11-24T04:55:20.005Z,5.30
2017-11-24T04:57:46.952Z,5.53
2017-11-24T05:00:13.872Z,5.43
2017-11-24T05:02:40.736Z,5.00
2017-11-24T05:05:07.605Z,5.23
2017-11-24T05:07:34.441Z,5.37
2017-11-24T05:10:01.270Z,4.30
2017-11-24T05:12:28.874Z,4.70
2017-11-24T05:14:55.744Z,6.17
2017-11-24T05:17:22.664Z,4.10
2017-11-24T05:19:50.262Z,4.90
2017-11-24T05:22:17.717Z,4.70
2017-11-24T05:24:45.339Z,4.10
2017-11-24T05:27:12.207Z,4.50
2017-11-24T05:29:39.137Z,5.17
2017-11-24T05:32:05.990Z,5.60
2017-11-24T05:34:33.594Z,6.57
2017-11-24T05:37:00.483Z,6.47
2017-11-24T05:39:27.361Z,6.10
2017-11-24T05:41:54.305Z,6.27
2017-11-24T05:44:21.222Z,8.00
2017-11-24T05:46:48.188Z,7.40
2017-11-24T05:49:15.188Z,7.33
2017-11-24T05:51:42.057Z,5.53
2017-11-24T05:54:09.601Z,5.33
2017-11-24T05:56:37.196Z,4.80
2017-11-24T05:59:04.193Z,5.10
2017-11-24T06:01:31.274Z,4.90
2017-11-24T06:03:59.545Z,5.47
2017-11-24T06:06:26.567Z,5.80
2017-11-24T06:08:53.649Z,5.53
2017-11-24T06:11:20.634Z,4.90
2017-11-24T06:13:47.638Z,6.00
2017-11-24T06:16:15.314Z,5.83
2017-11-24T06:18:42.867Z,6.70
2017-11-24T06:21:09.917Z,6.63
2017-11-24T06:23:36.868Z,7.00
2017-11-24T06:26:03.777Z,6.03
2017-11-24T06:28:31.378Z,6.70
2017-11-24T06:30:58.949Z,6.23
2017-11-24T06:33:25.881Z,6.63
2017-11-24T06:35:52.786Z,6.30
2017-11-24T06:38:20.409Z,6.13
2017-11-24T06:40:47.306Z,5.93
2017-11-24T06:43:14.165Z,7.60
2017-11-24T06:45:41.067Z,6.90
2017-11-24T06:48:07.928Z,6.63
2017-11-24T06:50:34.775Z,6.33
2017-11-24T06:53:02.375Z,7.33
2017-11-24T06:55:29.232Z,8.80
2017-11-24T06:57:56.104Z,8.50
2017-11-24T07:00:23.010Z,8.73
2017-11-24T07:02:49.933Z,8.63
2017-11-24T07:05:16.787Z,9.50
2017-11-24T07:07:43.701Z,8.50
2017-11-24T07:10:10.663Z,9.53
2017-11-24T07:12:37.559Z,8.80
2017-11-24T07:15:04.454Z,9.53
2017-11-24T07:17:31.350Z,10.17
2017-11-24T07:19:58.302Z,11.23
2017-11-24T07:22:25.200Z,12.53
2017-11-24T07:24:52.821Z,12.50
2017-11-24T07:27:19.752Z,12.33
2017-11-24T07:29:46.597Z,12.23
2017-11-24T07:32:14.287Z,11.70
2017-11-24T07:34:41.149Z,14.87
2017-11-24T07:37:08.009Z,11.90
2017-11-24T07:39:34.897Z,11.77
2017-11-24T07:42:01.736Z,12.90
2017-11-24T07:44:28.625Z,12.93
2017-11-24T07:46:55.570Z,12.40
2017-11-24T07:49:22.432Z,11.40
2017-11-24T07:51:50.035Z,11.10
2017-11-24T07:54:16.894Z,11.70
2017-11-24T07:56:43.752Z,10.40
2017-11-24T07:59:10.654Z,10.87
2017-11-24T08:01:37.514Z,11.13
2017-11-24T08:04:04.395Z,11.20
2017-11-24T08:06:31.983Z,13.10
2017-11-24T08:08:58.850Z,11.77
2017-11-24T08:11:25.782Z,11.97
2017-11-24T08:13:52.640Z,11.90
2017-11-24T08:16:19.589Z,10.37
2017-11-24T08:18:46.496Z,10.10
2017-11-24T08:21:13.445Z,12.60
2017-11-24T08:23:41.091Z,13.30
2017-11-24T08:26:08.010Z,13.47
2017-11-24T08:28:34.850Z,12.83
2017-11-24T08:31:02.538Z,12.37
2017-11-24T08:33:30.160Z,12.90
2017-11-24T08:35:57.035Z,12.97
2017-11-24T08:38:23.967Z,13.87
2017-11-24T08:40:50.812Z,13.03
2017-11-24T08:43:17.655Z,12.30
2017-11-24T08:45:45.265Z,13.23
2017-11-24T08:48:18.206Z,14.67
2017-11-24T08:50:45.083Z,15.00
2017-11-24T08:53:11.959Z,15.20
2017-11-24T08:55:39.702Z,15.60
2017-11-24T08:58:06.675Z,13.83
2017-11-24T09:00:33.591Z,14.93
2017-11-24T09:03:00.585Z,14.90
2017-11-24T09:05:27.501Z,14.60
2017-11-24T09:07:55.201Z,12.90
2017-11-24T09:10:22.174Z,13.33
2017-11-24T09:12:49.093Z,12.73
2017-11-24T09:15:15.951Z,13.40
2017-11-24T09:17:42.782Z,9.90
2017-11-24T09:20:09.625Z,11.40
2017-11-24T09:22:38.051Z,10.30
2017-11-24T09:25:04.916Z,8.13
2017-11-24T09:27:31.804Z,8.23
2017-11-24T09:29:59.405Z,8.80
2017-11-24T09:32:26.320Z,9.13
2017-11-24T09:34:53.242Z,7.93
2017-11-24T09:37:20.119Z,6.73
2017-11-24T09:39:46.944Z,7.13
2017-11-24T09:42:13.839Z,7.97
2017-11-24T09:44:40.698Z,9.57
2017-11-24T09:47:07.568Z,10.87
2017-11-24T09:49:35.216Z,10.73
2017-11-24T09:52:02.089Z,8.93
2017-11-24T09:54:28.968Z,7.47
2017-11-24T09:56:55.922Z,8.40
2017-11-24T09:59:26.292Z,7.33
2017-11-24T10:01:53.160Z,7.20
2017-11-24T10:04:20.051Z,8.03
2017-11-24T10:06:47.728Z,8.83
2017-11-24T10:09:15.293Z,7.60
2017-11-24T10:11:42.158Z,7.60
2017-11-24T10:14:10.810Z,6.40
2017-11-24T10:16:38.893Z,7.70
2017-11-24T10:19:06.475Z,8.27
2017-11-24T10:21:39.437Z,7.97
2017-11-24T10:24:06.760Z,8.33
2017-11-24T10:26:33.775Z,9.93
2017-11-24T10:29:01.077Z,8.47
2017-11-24T10:31:28.332Z,8.20
2017-11-24T10:33:56.030Z,9.27
2017-11-24T10:36:22.882Z,9.10
2017-11-24T10:38:49.704Z,9.23
2017-11-24T10:41:16.527Z,10.70
2017-11-24T10:43:43.390Z,9.43
2017-11-24T10:46:10.800Z,11.30
2017-11-24T10:48:38.646Z,11.20
2017-11-24T10:51:05.608Z,11.30
2017-11-24T10:53:33.185Z,8.97
2017-11-24T10:56:00.021Z,7.90
2017-11-24T10:58:27.279Z,7.03
2017-11-24T11:00:54.836Z,7.80
2017-11-24T11:03:21.688Z,8.60
2017-11-24T11:05:48.535Z,7.70
2017-11-24T11:08:15.387Z,7.73
2017-11-24T11:10:42.217Z,8.07
2017-11-24T11:13:09.063Z,7.73
2017-11-24T11:15:36.628Z,8.57
2017-11-24T11:18:03.484Z,10.53
2017-11-24T11:20:30.336Z,8.13
2017-11-24T11:22:57.191Z,9.17
2017-11-24T11:25:24.052Z,9.57
2017-11-24T11:27:50.940Z,9.90
2017-11-24T11:30:17.801Z,8.43
2017-11-24T11:32:45.487Z,9.10
2017-11-24T11:35:13.100Z,7.00
2017-11-24T11:37:39.978Z,7.10
2017-11-24T11:40:06.867Z,7.73
2017-11-24T11:42:33.716Z,7.03
2017-11-24T11:45:00.606Z,7.57
2017-11-24T11:47:27.519Z,7.40
2017-11-24T11:49:54.398Z,8.97
2017-11-24T11:52:21.293Z,8.60
2017-11-24T11:54:51.240Z,11.70
2017-11-24T11:57:18.830Z,9.83
2017-11-24T11:59:45.694Z,10.00
2017-11-24T12:02:12.701Z,12.00
2017-11-24T12:04:39.584Z,9.77
2017-11-24T12:07:06.442Z,8.00
2017-11-24T12:09:33.294Z,7.87
2017-11-24T12:12:00.167Z,8.03
2017-11-24T12:14:27.004Z,7.70
2017-11-24T12:16:53.860Z,7.73
2017-11-24T12:19:20.691Z,8.73
2017-11-24T12:21:47.512Z,7.97
2017-11-24T12:24:14.347Z,9.17
2017-11-24T12:26:41.230Z,8.70
2017-11-24T12:29:08.093Z,8.17
2017-11-24T12:31:34.949Z,7.03
2017-11-24T12:34:01.817Z,7.93
2017-11-24T12:36:28.726Z,8.57
2017-11-24T12:38:55.568Z,7.70
2017-11-24T12:41:23.140Z,9.30
2017-11-24T12:43:50.819Z,7.50
2017-11-24T12:46:18.406Z,7.57
2017-11-24T12:48:47.111Z,7.03
2017-11-24T12:51:15.792Z,7.20
2017-11-24T12:53:42.689Z,5.90
2017-11-24T12:56:09.681Z,4.07
2017-11-24T12:58:36.813Z,4.67
2017-11-24T13:01:04.165Z,4.70
2017-11-24T13:03:32.394Z,5.57
2017-11-24T13:05:59.761Z,4.93
2017-11-24T13:08:26.644Z,6.00
2017-11-24T13:10:53.628Z,6.00
2017-11-24T13:13:20.502Z,5.23
2017-11-24T13:15:48.142Z,6.53
2017-11-24T13:18:15.012Z,6.57
2017-11-24T13:20:41.925Z,7.27
2017-11-24T13:23:09.591Z,6.83
2017-11-24T13:25:37.451Z,8.17
2017-11-24T13:28:04.405Z,7.70
2017-11-24T13:30:32.409Z,8.23
2017-11-24T13:33:00.211Z,8.47
2017-11-24T13:35:27.449Z,8.50
2017-11-24T13:37:56.314Z,9.40
2017-11-24T13:40:24.018Z,8.13
2017-11-24T13:42:53.032Z,7.33
2017-11-24T13:45:20.738Z,7.73
2017-11-24T13:47:49.345Z,7.30
2017-11-24T13:53:11.534Z,8.07
2017-11-24T13:55:38.793Z,7.50
2017-11-24T13:58:09.200Z,8.50
2017-11-24T14:00:36.181Z,6.83
2017-11-24T14:03:04.758Z,7.40
2017-11-24T14:05:32.692Z,8.37
2017-11-24T14:08:00.453Z,6.53
2017-11-24T14:10:27.756Z,5.60
2017-11-24T14:12:57.145Z,6.27
2017-11-24T14:15:28.212Z,6.07
2017-11-24T14:31:02.056Z,5.80
2017-11-24T14:33:28.916Z,5.50
2017-11-24T14:35:56.794Z,6.53
2017-11-24T14:38:23.742Z,6.90
2017-11-24T14:40:51.344Z,7.00
2017-11-24T14:43:18.209Z,7.77
2017-11-24T14:45:45.036Z,7.30
2017-11-24T14:48:11.943Z,8.80
2017-11-24T14:50:38.822Z,9.20
2017-11-24T14:53:05.636Z,8.57
2017-11-24T14:55:33.179Z,9.37
2017-11-24T14:58:00.445Z,9.20
2017-11-24T15:00:27.449Z,9.30
2017-11-24T15:02:55.111Z,9.63
2017-11-24T15:05:21.955Z,10.23
2017-11-24T15:07:48.774Z,9.70
2017-11-24T15:10:15.914Z,9.00
2017-11-24T15:12:42.745Z,10.10
2017-11-24T15:15:09.578Z,8.60
2017-11-24T15:17:36.400Z,9.53
2017-11-24T15:20:04.845Z,10.33
2017-11-24T15:22:32.210Z,8.67
2017-11-24T15:24:59.443Z,7.93
2017-11-24T15:27:46.889Z,9.60
2017-11-24T15:30:14.280Z,8.73
2017-11-24T15:32:41.846Z,9.30
2017-11-24T15:35:09.570Z,9.27
2017-11-24T15:37:38.657Z,9.67
2017-11-24T15:40:07.150Z,9.33
2017-11-24T15:42:34.165Z,9.73
2017-11-24T15:45:01.280Z,9.47
2017-11-24T15:47:28.307Z,11.77
2017-11-24T15:49:57.811Z,10.03
2017-11-24T15:52:25.609Z,9.60
2017-11-24T15:54:54.401Z,10.10
2017-11-24T15:57:22.476Z,10.57
2017-11-24T15:59:49.547Z,9.63
2017-11-24T16:02:16.582Z,10.70
2017-11-24T16:04:43.660Z,10.00
2017-11-24T16:07:10.947Z,10.37
2017-11-24T16:09:38.209Z,12.00
2017-11-24T16:12:05.164Z,10.33
2017-11-24T16:14:32.076Z,10.70
2017-11-24T16:16:59.853Z,10.30
2017-11-24T16:19:26.807Z,11.50
2017-11-24T16:21:54.032Z,11.33
2017-11-24T16:24:22.028Z,12.20
2017-11-24T16:26:49.135Z,10.90
2017-11-24T16:29:16.121Z,12.77
2017-11-24T16:31:46.043Z,11.17
2017-11-24T16:34:13.781Z,12.07
2017-11-24T16:36:40.782Z,13.30
2017-11-24T16:39:07.768Z,11.83
2017-11-24T16:41:34.957Z,12.80
2017-11-24T16:44:01.999Z,13.67
2017-11-24T16:46:32.068Z,12.40
2017-11-24T16:48:59.026Z,12.37
2017-11-24T16:51:26.037Z,14.13
2017-11-24T16:53:59.083Z,13.07
2017-11-24T16:56:26.122Z,14.57
2017-11-24T16:58:53.017Z,13.10
2017-11-24T17:01:19.880Z,14.63
2017-11-24T17:03:46.766Z,14.87
2017-11-24T17:06:13.620Z,14.90
2017-11-24T17:08:40.501Z,13.47
2017-11-24T17:11:07.433Z,13.73
2017-11-24T17:13:34.347Z,15.43
2017-11-24T17:16:01.242Z,14.70
2017-11-24T17:18:28.096Z,16.43
2017-11-24T17:20:55.765Z,15.97
2017-11-24T17:23:22.670Z,17.63
2017-11-24T17:25:49.640Z,19.27
2017-11-24T17:28:18.158Z,17.67
2017-11-24T17:30:45.030Z,16.77
2017-11-24T17:33:11.958Z,19.17
2017-11-24T17:35:38.921Z,19.90
2017-11-24T17:38:05.852Z,20.00
2017-11-24T17:40:33.484Z,19.50
2017-11-24T17:43:00.502Z,18.97
2017-11-24T17:45:27.433Z,19.27
2017-11-24T17:47:54.316Z,18.53
2017-11-24T17:50:21.935Z,18.80
2017-11-24T17:52:48.786Z,16.10
2017-11-24T17:55:15.693Z,17.37
2017-11-24T17:57:42.550Z,20.23
2017-11-24T18:00:09.513Z,18.57
2017-11-24T18:02:36.462Z,19.30
2017-11-24T18:05:03.387Z,19.10
2017-11-24T18:07:30.283Z,19.40
2017-11-24T18:09:57.126Z,19.27
2017-11-24T18:12:23.968Z,20.60
2017-11-24T18:14:50.860Z,20.97
2017-11-24T18:17:17.766Z,21.67
2017-11-24T18:19:45.337Z,23.37
2017-11-24T18:22:12.225Z,20.83
2017-11-24T18:24:39.101Z,22.80
2017-11-24T18:27:05.915Z,21.87
2017-11-24T18:29:32.785Z,21.40
2017-11-24T18:31:59.680Z,20.43
2017-11-24T18:34:27.339Z,24.10
2017-11-24T18:36:54.227Z,21.43
2017-11-24T18:39:21.357Z,23.70
2017-11-24T18:41:48.280Z,21.00
2017-11-24T18:44:15.189Z,20.00
2017-11-24T18:46:42.246Z,20.43
2017-11-24T18:49:09.405Z,19.40
2017-11-24T18:51:36.850Z,19.80
2017-11-24T18:54:04.473Z,20.17
2017-11-24T18:56:33.933Z,19.20
2017-11-24T18:59:00.962Z,20.77
2017-11-24T19:01:27.922Z,20.30
2017-11-24T19:03:54.899Z,20.73
2017-11-24T19:06:21.837Z,20.00
2017-11-24T19:08:48.737Z,21.20
2017-11-24T19:11:15.970Z,20.60
2017-11-24T19:13:42.930Z,18.07
2017-11-24T19:16:09.889Z,17.93
2017-11-24T19:18:36.958Z,20.88
2017-11-24T19:21:03.915Z,22.40
2017-11-24T19:23:30.947Z,20.80
2017-11-24T19:25:58.328Z,20.90
2017-11-24T19:28:25.671Z,20.17
2017-11-24T19:30:55.928Z,20.77
2017-11-24T19:36:10.393Z,20.67
2017-11-24T19:38:39.158Z,19.30
2017-11-24T19:41:07.316Z,20.65
2017-11-24T19:43:41.668Z,20.48
2017-11-24T19:46:11.708Z,20.50
2017-11-24T19:48:39.300Z,18.47
2017-11-24T19:51:07.114Z,21.80
2017-11-24T19:53:39.993Z,18.30
2017-11-24T19:56:23.491Z,20.92
2017-11-24T19:58:56.261Z,22.25
2017-11-24T20:01:23.837Z,22.20
2017-11-24T20:03:58.958Z,19.95
2017-11-24T20:06:33.111Z,20.30
2017-11-24T20:09:04.009Z,19.42
2017-11-24T20:11:32.660Z,22.23
2017-11-24T20:14:02.480Z,21.73
2017-11-24T20:16:31.144Z,22.60
2017-11-24T20:19:00.484Z,20.05
2017-11-24T20:21:31.025Z,20.83
2017-11-24T20:24:04.255Z,18.45
2017-11-24T20:26:45.336Z,21.10
2017-11-24T20:29:14.203Z,22.67
2017-11-24T20:31:54.291Z,23.07
2017-11-24T20:37:13.733Z,22.15
2017-11-24T21:06:06.900Z,22.75
2017-11-24T21:08:42.377Z,23.20
2017-11-24T21:13:50.908Z,22.58
2017-11-24T21:16:30.824Z,21.83
2017-11-24T21:18:59.724Z,23.95
2017-11-24T21:21:27.169Z,23.00
2017-11-24T21:23:55.843Z,24.00
2017-11-24T21:26:22.904Z,22.20
2017-11-24T21:28:50.026Z,23.25
2017-11-24T21:31:20.248Z,27.83
2017-11-24T21:33:47.445Z,27.55
2017-11-24T21:36:14.443Z,25.30
2017-11-24T21:38:41.354Z,26.45
2017-11-24T21:41:11.655Z,27.23
2017-11-24T21:43:56.593Z,26.25
2017-11-24T21:46:24.605Z,23.65
2017-11-24T21:48:52.460Z,25.17
2017-11-24T21:51:19.893Z,25.35
2017-11-24T21:53:46.781Z,23.90
2017-11-24T21:56:14.445Z,25.98
2017-11-24T21:58:41.393Z,27.77
2017-11-24T22:01:08.360Z,28.23
2017-11-24T22:03:35.393Z,29.60
2017-11-24T22:06:02.897Z,28.23
2017-11-24T22:08:32.741Z,28.52
2017-11-24T22:11:00.242Z,26.30
2017-11-24T22:20:01.338Z,26.02
2017-11-24T22:22:56.063Z,26.70
2017-11-24T22:25:23.265Z,29.55
2017-11-24T22:27:50.933Z,30.33
2017-11-24T22:30:18.728Z,33.35
2017-11-24T22:32:46.170Z,35.60
2017-11-24T22:35:14.051Z,32.73
2017-11-24T22:37:41.723Z,34.20
2017-11-24T22:42:43.268Z,31.80
2017-11-24T22:45:10.327Z,33.53
2017-11-24T22:47:39.305Z,31.45
2017-11-24T22:50:06.968Z,30.55
2017-11-24T22:52:34.481Z,34.25
2017-11-24T22:55:01.619Z,33.60
2017-11-24T22:57:28.868Z,30.57
2017-11-24T23:02:43.128Z,34.40
2017-11-24T23:05:10.183Z,30.47
2017-11-24T23:07:37.555Z,33.90
2017-11-24T23:10:04.577Z,33.08
2017-11-24T23:12:31.558Z,32.00
2017-11-24T23:14:58.724Z,32.92
2017-11-24T23:17:25.621Z,34.27
2017-11-24T23:19:52.569Z,32.08
2017-11-24T23:22:19.754Z,32.58
2017-11-24T23:24:46.726Z,32.70
2017-11-24T23:27:13.819Z,34.25
2017-11-24T23:29:40.729Z,34.00
2017-11-24T23:32:08.369Z,31.50
2017-11-24T23:34:37.231Z,31.45
2017-11-24T23:37:13.154Z,32.57
2017-11-24T23:39:40.203Z,30.40
2017-11-24T23:42:08.073Z,31.13
2017-11-24T23:44:34.978Z,33.22
2017-11-24T23:50:05.138Z,29.93
2017-11-24T23:52:42.746Z,32.33
2017-11-24T23:55:25.125Z,31.58
2017-11-24T23:58:03.191Z,32.95
